createdAt,value
2022-07-28T00:02:50.641Z,25
2022-07-28T00:08:03.369Z,25
2022-07-28T00:13:15.844Z,25
2022-07-28T00:18:28.454Z,25
2022-07-28T00:23:41.020Z,25
2022-07-28T00:28:53.455Z,25
2022-07-28T00:34:06.179Z,25
2022-07-28T00:39:18.774Z,25
2022-07-28T00:44:31.367Z,25
2022-07-28T00:49:43.879Z,25
2022-07-28T00:54:56.359Z,25
2022-07-28T01:00:08.938Z,25
2022-07-28T01:05:44.935Z,25
2022-07-28T01:10:53.625Z,25
2022-07-28T01:16:07.171Z,24
2022-07-28T01:21:19.569Z,24
2022-07-28T01:26:33.018Z,24
2022-07-28T01:31:45.790Z,25
2022-07-28T01:36:58.308Z,24
2022-07-28T01:42:10.928Z,24
2022-07-28T01:47:23.326Z,24
2022-07-28T01:52:35.964Z,24
2022-07-28T01:57:49.235Z,24
2022-07-28T02:03:02.359Z,24
2022-07-28T02:08:14.819Z,24
2022-07-28T02:13:27.574Z,24
2022-07-28T02:18:40.875Z,24
2022-07-28T02:23:53.303Z,24
2022-07-28T02:29:05.484Z,24
2022-07-28T02:34:20.253Z,24
2022-07-28T02:39:38.119Z,24
2022-07-28T02:44:50.058Z,24
2022-07-28T02:50:02.591Z,24
2022-07-28T02:55:14.699Z,24
2022-07-28T03:00:26.679Z,23
2022-07-28T03:05:39.310Z,23
2022-07-28T03:10:51.538Z,23
2022-07-28T03:16:03.721Z,23
2022-07-28T03:21:16.019Z,23
2022-07-28T03:26:28.400Z,23
2022-07-28T03:31:41.399Z,23
2022-07-28T03:36:54.468Z,23
2022-07-28T03:42:06.660Z,22
2022-07-28T03:47:19.078Z,23
2022-07-28T03:52:31.408Z,23
2022-07-28T03:57:43.878Z,23
2022-07-28T04:02:56.171Z,23
2022-07-28T04:08:08.609Z,23
2022-07-28T04:13:20.887Z,23
2022-07-28T04:18:33.038Z,23
2022-07-28T04:23:45.383Z,23
2022-07-28T04:28:57.708Z,23
2022-07-28T04:34:10.192Z,23
2022-07-28T04:39:23.151Z,23
2022-07-28T04:44:35.458Z,23
2022-07-28T04:49:47.615Z,23
2022-07-28T04:55:00.032Z,23
2022-07-28T05:00:13.671Z,23
2022-07-28T05:05:25.692Z,23
2022-07-28T05:10:37.910Z,23
2022-07-28T05:15:50.376Z,23
2022-07-28T05:21:04.127Z,23
2022-07-28T05:26:16.167Z,23
2022-07-28T05:31:28.787Z,23
2022-07-28T05:36:41.085Z,23
2022-07-28T05:41:53.426Z,23
2022-07-28T05:47:05.856Z,24
2022-07-28T05:52:18.345Z,24
2022-07-28T05:57:30.808Z,24
2022-07-28T06:02:43.526Z,24
2022-07-28T06:07:56.009Z,24
2022-07-28T06:13:08.597Z,24
2022-07-28T06:18:21.195Z,24
2022-07-28T06:23:33.687Z,24
2022-07-28T06:28:46.307Z,24
2022-07-28T06:33:58.998Z,24
2022-07-28T06:39:11.655Z,25
2022-07-28T06:44:58.154Z,25
2022-07-28T06:50:27.503Z,25
2022-07-28T06:55:37.204Z,25
2022-07-28T07:00:49.719Z,25
2022-07-28T07:06:02.548Z,26
2022-07-28T07:11:15.227Z,26
2022-07-28T07:16:38.441Z,26
2022-07-28T07:21:51.212Z,26
2022-07-28T07:27:03.887Z,26
2022-07-28T07:32:16.502Z,26
2022-07-28T07:37:29.075Z,26
2022-07-28T07:42:41.669Z,27
2022-07-28T07:47:54.389Z,27
2022-07-28T07:53:07.045Z,27
2022-07-28T07:58:19.555Z,27
2022-07-28T08:03:33.383Z,27
2022-07-28T08:08:49.302Z,28
2022-07-28T08:14:01.312Z,28
2022-07-28T08:19:14.784Z,28
2022-07-28T08:24:34.920Z,29
2022-07-28T08:29:55.486Z,29
2022-07-28T08:35:35.994Z,29
2022-07-28T08:40:44.897Z,29
2022-07-28T08:45:59.368Z,29
2022-07-28T08:51:11.452Z,29
2022-07-28T08:56:24.225Z,30
2022-07-28T09:01:40.074Z,30
2022-07-28T09:06:55.137Z,30
2022-07-28T09:12:07.958Z,30
2022-07-28T09:17:20.776Z,30
2022-07-28T09:22:33.708Z,30
2022-07-28T09:27:46.445Z,30
2022-07-28T09:32:59.423Z,30
2022-07-28T09:38:12.132Z,30
2022-07-28T09:43:25.097Z,30
2022-07-28T09:48:38.494Z,30
2022-07-28T09:53:51.419Z,31
2022-07-28T09:59:07.344Z,31
2022-07-28T10:04:26.076Z,31
2022-07-28T10:09:38.946Z,31
2022-07-28T10:14:51.838Z,31
2022-07-28T10:20:04.691Z,31
2022-07-28T10:25:34.440Z,31
2022-07-28T10:30:46.578Z,32
2022-07-28T10:35:59.383Z,31
2022-07-28T10:41:12.477Z,32
2022-07-28T10:46:27.315Z,32
2022-07-28T10:52:37.619Z,32
2022-07-28T10:58:12.863Z,33
2022-07-28T11:03:23.786Z,32
2022-07-28T11:08:36.842Z,33
2022-07-28T11:13:53.753Z,33
2022-07-28T11:20:26.626Z,33
2022-07-28T11:25:36.187Z,34
2022-07-28T11:30:49.790Z,36
2022-07-28T11:36:03.566Z,38
2022-07-28T11:41:17.628Z,39
2022-07-28T11:51:56.157Z,40
2022-07-28T12:12:39.271Z,38
2022-07-28T12:17:52.388Z,39
2022-07-28T12:28:19.488Z,39
2022-07-28T12:33:31.330Z,39
2022-07-28T12:38:43.888Z,39
2022-07-28T12:43:56.815Z,41
2022-07-28T12:49:10.446Z,42
2022-07-28T12:54:23.747Z,42
2022-07-28T12:59:36.513Z,41
2022-07-28T13:10:01.361Z,39
2022-07-28T13:30:45.819Z,37
2022-07-28T13:46:21.885Z,36
2022-07-28T13:51:35.380Z,36
2022-07-28T14:12:18.928Z,36
2022-07-28T14:17:46.638Z,36
2022-07-28T14:33:17.388Z,36
2022-07-28T14:54:03.609Z,34
2022-07-28T15:04:27.558Z,34
2022-07-28T15:09:50.755Z,34
2022-07-28T15:20:11.438Z,34
2022-07-28T15:30:49.917Z,34
2022-07-28T15:36:00.497Z,34
2022-07-28T15:46:23.942Z,35
2022-07-28T15:56:48.390Z,34
2022-07-28T16:02:01.245Z,35
2022-07-28T16:12:24.430Z,34
2022-07-28T16:17:40.841Z,35
2022-07-28T16:28:05.823Z,34
2022-07-28T16:33:18.469Z,35
2022-07-28T16:38:31.271Z,35
2022-07-28T16:43:45.388Z,35
2022-07-28T16:48:57.746Z,35
2022-07-28T16:54:10.458Z,35
2022-07-28T16:59:23.140Z,35
2022-07-28T17:09:56.689Z,35
2022-07-28T17:20:19.627Z,35
2022-07-28T17:27:37.611Z,34
2022-07-28T17:38:01.769Z,35
2022-07-28T17:48:25.731Z,34
2022-07-28T17:53:42.693Z,34
2022-07-28T18:14:33.221Z,31
2022-07-28T18:30:06.829Z,30
2022-07-28T18:35:19.357Z,30
2022-07-28T18:40:31.822Z,30
2022-07-28T18:45:44.452Z,30
2022-07-28T18:50:57.301Z,30
2022-07-28T18:56:09.987Z,30
2022-07-28T19:01:22.603Z,29
2022-07-28T19:06:35.113Z,29
2022-07-28T19:11:47.693Z,29
2022-07-28T19:16:59.972Z,29
2022-07-28T19:22:12.635Z,29
2022-07-28T19:27:31.552Z,29
2022-07-28T19:32:46.362Z,29
2022-07-28T19:38:00.260Z,29
2022-07-28T19:43:13.982Z,28
2022-07-28T19:48:26.104Z,28
2022-07-28T19:53:41.601Z,28
2022-07-28T19:59:01.032Z,28
2022-07-28T20:04:14.030Z,28
2022-07-28T20:09:26.671Z,28
2022-07-28T20:14:39.651Z,28
2022-07-28T20:19:52.152Z,28
2022-07-28T20:25:04.887Z,28
2022-07-28T20:30:23.365Z,28
2022-07-28T20:35:35.861Z,28
2022-07-28T20:40:51.453Z,28
2022-07-28T20:46:03.887Z,28
2022-07-28T20:51:16.544Z,27
2022-07-28T20:56:29.155Z,27
2022-07-28T21:01:42.023Z,27
2022-07-28T21:07:04.711Z,27
2022-07-28T21:12:17.811Z,27
2022-07-28T21:17:32.420Z,27
2022-07-28T21:22:45.171Z,27
2022-07-28T21:27:57.652Z,27
2022-07-28T21:33:10.625Z,27
2022-07-28T21:38:23.030Z,27
2022-07-28T21:43:35.571Z,27
2022-07-28T21:48:48.126Z,27
2022-07-28T21:54:00.841Z,27
2022-07-28T21:59:13.112Z,27
2022-07-28T22:04:26.475Z,27
2022-07-28T22:09:38.771Z,27
2022-07-28T22:14:51.212Z,27
2022-07-28T22:20:03.637Z,27
2022-07-28T22:25:16.078Z,27
2022-07-28T22:30:28.296Z,26
2022-07-28T22:35:40.438Z,26
2022-07-28T22:40:53.017Z,26
2022-07-28T22:46:05.697Z,26
2022-07-28T22:51:18.201Z,26
2022-07-28T22:56:38.387Z,26
2022-07-28T23:01:53.475Z,26
2022-07-28T23:07:15.315Z,26
2022-07-28T23:12:28.235Z,26
2022-07-28T23:17:40.827Z,26
2022-07-28T23:22:53.497Z,26
2022-07-28T23:28:06.016Z,26
2022-07-28T23:33:58.075Z,26
2022-07-28T23:39:05.806Z,26
2022-07-28T23:44:19.180Z,26
2022-07-28T23:49:31.456Z,26
2022-07-28T23:54:43.896Z,26
2022-07-28T23:59:58.635Z,26
